createdAt,value
2022-11-14T00:08:43.686Z,4.93
2022-11-14T00:28:43.608Z,4.44
2022-11-14T00:48:43.654Z,4.07
2022-11-14T01:08:43.747Z,4.01
2022-11-14T01:28:43.563Z,4.02
2022-11-14T01:48:43.551Z,3.91
2022-11-14T02:08:43.534Z,3.61
2022-11-14T02:28:43.509Z,3.33
2022-11-14T02:48:43.486Z,3.09
2022-11-14T03:08:43.481Z,2.9
2022-11-14T03:28:43.451Z,2.61
2022-11-14T03:48:43.477Z,2.42
2022-11-14T04:08:43.431Z,2.19
2022-11-14T04:48:43.393Z,2.09
2022-11-14T05:08:43.381Z,2.06
2022-11-14T05:28:43.356Z,1.94
2022-11-14T05:48:43.322Z,1.84
2022-11-14T06:08:43.322Z,1.77
2022-11-14T06:28:43.305Z,1.89
2022-11-14T06:48:43.275Z,1.99
2022-11-14T07:08:43.275Z,2.11
2022-11-14T07:28:43.937Z,2.13
2022-11-14T07:48:43.240Z,2.32
2022-11-14T08:08:43.252Z,2.63
2022-11-14T08:28:43.205Z,3.08
2022-11-14T09:08:43.171Z,5.92
2022-11-14T09:28:43.142Z,8.19
2022-11-14T09:48:43.118Z,8.71
2022-11-14T10:08:43.085Z,8.77
2022-11-14T10:28:43.066Z,8.54
2022-11-14T10:48:43.036Z,8.69
2022-11-14T11:08:43.952Z,8.69
2022-11-14T11:28:42.985Z,9.08
2022-11-14T11:48:42.987Z,10.3
2022-11-14T12:08:42.925Z,11.05
2022-11-14T12:28:42.895Z,11.94
2022-11-14T12:48:42.859Z,10.97
2022-11-14T13:08:42.839Z,10.32
2022-11-14T13:28:42.803Z,10.34
2022-11-14T13:48:47.304Z,10.23
2022-11-14T14:08:42.748Z,10.37
2022-11-14T14:28:42.729Z,10.4
2022-11-14T14:48:42.683Z,10.58
2022-11-14T15:28:42.630Z,10.15
2022-11-14T16:08:42.582Z,9.83
2022-11-14T16:28:42.548Z,9.81
2022-11-14T17:08:42.493Z,9.43
2022-11-14T17:48:42.444Z,9.27
2022-11-14T18:08:42.409Z,9.26
2022-11-14T18:28:42.409Z,9.28
2022-11-14T18:48:42.361Z,9.27
2022-11-14T19:08:42.366Z,9.21
2022-11-14T19:28:42.351Z,9.21
2022-11-14T19:48:42.270Z,9.21
2022-11-14T20:08:42.299Z,8.96
2022-11-14T20:28:42.341Z,8.45
2022-11-14T21:08:42.163Z,7.83
2022-11-14T21:28:42.150Z,8.08
2022-11-14T21:48:42.113Z,8.09
2022-11-14T22:08:42.117Z,8.37
2022-11-14T22:28:42.050Z,8.71
2022-11-14T22:48:42.014Z,9.04
2022-11-14T23:48:41.951Z,10.12
